Notice: Undefined index: name in /home/yearbywe/public_html/pwsTEST/metar_load_funct.php on line 53

Notice: Undefined index: humidity_percent in /home/yearbywe/public_html/pwsTEST/metar_load_funct.php on line 95
Metar Aviation Weather Data     EGNV
 X  CloseMetar Aviation Weather Data     EGNV

Temperature

5°C Temp

2°C Dewpoint

% Humidity



Wind

39 KM/H

24 MPH

21 KTS



240°
West South
West
Current Conditions

Light Rain Light Rain
Pressure 1002.92 (hPa) - 29.62 (in)
Visibility 6.2 (mi) - 10 (km)
Airport
Airport-code EGNV

Location 0 (mi)

Metar:
EGNV 171750Z 24021G31KT 9999 -SHRA FEW020 SCT035 05/02 Q1003


Notice: Undefined offset: 1 in /home/yearbywe/public_html/pwsTEST/metar_popup.php on line 198

Notice: Undefined offset: 1 in /home/yearbywe/public_html/pwsTEST/metar_popup.php on line 200
Time: 13-08-2022 01:00